Time;durP1;ratioP1;P1;durP2;ratioP2;P2;SDS_P1;SDS_P2;PMS_P1;PMS_P2;Temp;Humidity;BMP_temperature;BMP_pressure;BME280_temperature;BME280_humidity;BME280_pressure;Samples;Min_cycle;Max_cycle;Signal;HPM_P1;HPM_P2
2022/07/07 00:01:02;;;;;;;10.55;7.20;;;;;;;17.74;100.00;101946.63;2613998;36;20049;-58
2022/07/07 00:03:31;;;;;;;10.85;6.45;;;;;;;17.80;100.00;101940.53;2614563;31;20034;-58
2022/07/07 00:05:59;;;;;;;9.93;7.35;;;;;;;17.76;100.00;101944.59;2613156;36;20038;-58
2022/07/07 00:08:28;;;;;;;12.52;7.65;;;;;;;17.76;100.00;101943.75;2613613;36;20035;-58
2022/07/07 00:10:56;;;;;;;10.18;7.55;;;;;;;17.59;100.00;101940.00;2615260;31;20035;-59
2022/07/07 00:13:25;;;;;;;12.70;7.68;;;;;;;17.61;100.00;101946.16;2614458;36;20034;-57
2022/07/07 00:15:53;;;;;;;9.98;6.90;;;;;;;17.69;100.00;101946.22;2613829;36;20032;-59
2022/07/07 00:18:25;;;;;;;9.68;7.25;;;;;;;17.64;100.00;101934.97;2613873;36;20037;-59
2022/07/07 00:20:53;;;;;;;9.10;6.72;;;;;;;17.64;100.00;101948.56;2614344;36;20041;-57
2022/07/07 00:23:22;;;;;;;13.60;6.82;;;;;;;17.65;100.00;101939.38;2613819;36;20046;-59
2022/07/07 00:25:50;;;;;;;10.68;6.68;;;;;;;17.65;100.00;101936.66;2614456;36;20034;-60
2022/07/07 00:28:18;;;;;;;13.98;6.97;;;;;;;17.64;100.00;101933.09;2614199;36;20076;-57
2022/07/07 00:30:46;;;;;;;10.83;7.17;;;;;;;17.67;100.00;101926.47;2614295;36;20026;-58
2022/07/07 00:33:15;;;;;;;9.13;6.70;;;;;;;17.67;100.00;101924.59;2613966;31;20047;-59
2022/07/07 00:35:46;;;;;;;10.70;6.47;;;;;;;17.66;100.00;101927.47;2613079;36;20884;-58
2022/07/07 00:38:14;;;;;;;11.70;6.30;;;;;;;17.68;100.00;101923.59;2612942;36;20575;-60
2022/07/07 00:40:42;;;;;;;7.80;5.68;;;;;;;17.67;100.00;101923.75;2613141;36;20034;-58
2022/07/07 00:43:11;;;;;;;11.50;7.47;;;;;;;17.64;100.00;101924.06;2614384;36;20042;-59
2022/07/07 00:45:39;;;;;;;10.98;6.85;;;;;;;17.62;100.00;101928.81;2614441;36;20326;-59
2022/07/07 00:48:09;;;;;;;11.97;7.40;;;;;;;17.49;100.00;101930.06;2614361;31;20034;-59
2022/07/07 00:50:37;;;;;;;10.18;7.43;;;;;;;17.56;100.00;101919.38;2614046;36;20432;-59
2022/07/07 00:53:08;;;;;;;11.02;6.63;;;;;;;17.58;100.00;101914.66;2614696;31;20055;-58
2022/07/07 00:55:37;;;;;;;12.80;7.28;;;;;;;17.52;100.00;101916.13;2612890;36;20030;-60
2022/07/07 00:58:05;;;;;;;11.90;7.38;;;;;;;17.45;100.00;101915.03;2614262;36;20073;-59
2022/07/07 01:00:34;;;;;;;11.55;7.30;;;;;;;17.43;100.00;101917.09;2614359;36;20055;-58
2022/07/07 01:03:03;;;;;;;14.02;8.13;;;;;;;17.40;100.00;101909.22;2614519;31;20069;-58
2022/07/07 01:05:34;;;;;;;11.50;7.07;;;;;;;17.40;100.00;101909.22;2613566;36;20034;-60
2022/07/07 01:08:03;;;;;;;10.00;6.50;;;;;;;17.33;100.00;101903.53;2613361;36;20133;-59
2022/07/07 01:10:34;;;;;;;7.30;5.07;;;;;;;17.33;100.00;101897.25;2613754;36;20030;-61
2022/07/07 01:13:04;;;;;;;9.18;4.95;;;;;;;17.40;100.00;101894.75;2613033;36;20069;-59
2022/07/07 01:15:33;;;;;;;6.97;2.60;;;;;;;17.47;100.00;101883.06;2615072;31;20539;-57
2022/07/07 01:18:02;;;;;;;4.18;2.00;;;;;;;17.53;100.00;101881.59;2613378;36;20059;-57
2022/07/07 01:20:30;;;;;;;6.28;2.15;;;;;;;17.48;100.00;101879.34;2614433;31;20388;-59
2022/07/07 01:23:01;;;;;;;6.68;2.38;;;;;;;17.51;100.00;101868.16;2614438;36;20065;-59
2022/07/07 01:25:30;;;;;;;6.57;2.13;;;;;;;17.54;100.00;101875.16;2613841;36;20035;-58
2022/07/07 01:27:58;;;;;;;7.77;2.23;;;;;;;17.52;100.00;101879.91;2613518;36;20039;-59
2022/07/07 01:30:27;;;;;;;3.90;1.60;;;;;;;17.47;100.00;101864.03;2613993;36;20272;-59
2022/07/07 01:32:55;;;;;;;4.45;2.15;;;;;;;17.55;100.00;101881.44;2613499;36;20173;-59
2022/07/07 01:35:23;;;;;;;7.53;2.60;;;;;;;17.55;100.00;101889.59;2613749;36;20423;-58
2022/07/07 01:37:51;;;;;;;5.27;2.20;;;;;;;17.43;100.00;101886.28;2614648;36;20405;-59
2022/07/07 01:40:22;;;;;;;6.80;2.60;;;;;;;17.32;100.00;101900.97;2614236;31;20318;-58
2022/07/07 01:42:51;;;;;;;5.18;2.35;;;;;;;17.08;100.00;101891.56;2613685;36;20034;-58
2022/07/07 01:45:19;;;;;;;5.95;2.45;;;;;;;16.92;100.00;101891.38;2613742;36;20082;-59
2022/07/07 01:47:47;;;;;;;3.80;2.43;;;;;;;16.88;100.00;101898.97;2613938;36;20063;-62
2022/07/07 01:50:15;;;;;;;3.93;2.37;;;;;;;16.80;100.00;101894.28;2614180;36;20085;-61
2022/07/07 01:52:44;;;;;;;3.40;2.53;;;;;;;16.66;100.00;101899.34;2615178;36;20057;-59
2022/07/07 01:55:12;;;;;;;4.93;2.53;;;;;;;16.59;100.00;101893.66;2615305;36;20288;-60
2022/07/07 01:57:43;;;;;;;7.70;2.83;;;;;;;16.68;100.00;101884.63;2614686;31;20598;-60
2022/07/07 02:00:14;;;;;;;4.88;2.90;;;;;;;16.60;100.00;101879.91;2614049;36;20093;-59
2022/07/07 02:02:42;;;;;;;5.03;3.20;;;;;;;16.58;100.00;101883.81;2615129;36;20038;-60
2022/07/07 02:05:13;;;;;;;3.43;2.80;;;;;;;16.60;100.00;101884.50;2615209;36;20051;-60
2022/07/07 02:07:41;;;;;;;5.72;3.60;;;;;;;16.56;100.00;101883.97;2615109;36;20050;-60
2022/07/07 02:10:10;;;;;;;5.47;3.73;;;;;;;16.67;100.00;101884.78;2614261;36;20073;-62
2022/07/07 02:12:38;;;;;;;6.72;3.90;;;;;;;16.52;100.00;101882.53;2615096;36;20065;-59
2022/07/07 02:15:10;;;;;;;5.80;4.40;;;;;;;16.53;100.00;101877.97;2614232;36;20026;-59
2022/07/07 02:17:39;;;;;;;6.13;4.40;;;;;;;16.52;100.00;101870.81;2615736;36;20401;-58
2022/07/07 02:20:08;;;;;;;5.10;4.50;;;;;;;16.46;100.00;101870.41;2613305;31;20139;-60
2022/07/07 02:22:37;;;;;;;7.18;4.70;;;;;;;16.49;100.00;101871.09;2614897;36;20037;-59
2022/07/07 02:25:05;;;;;;;6.07;4.40;;;;;;;16.45;100.00;101871.41;2614894;36;20447;-58
2022/07/07 02:27:34;;;;;;;5.05;4.60;;;;;;;16.46;100.00;101867.69;2614722;36;20084;-60
2022/07/07 02:30:02;;;;;;;6.95;4.43;;;;;;;16.52;100.00;101870.81;2614460;36;20038;-60
2022/07/07 02:32:33;;;;;;;8.67;4.63;;;;;;;16.55;100.00;101859.63;2615102;36;20038;-59
2022/07/07 02:35:02;;;;;;;13.32;5.00;;;;;;;16.55;100.00;101862.34;2614339;36;20757;-59
2022/07/07 02:37:30;;;;;;;9.60;4.70;;;;;;;16.46;100.00;101867.69;2614880;36;20053;-58
2022/07/07 02:39:59;;;;;;;8.75;4.65;;;;;;;16.46;100.00;101864.97;2615022;36;21088;-58
2022/07/07 02:42:27;;;;;;;9.38;4.72;;;;;;;16.64;100.00;101869.63;2614766;36;20069;-59
2022/07/07 02:44:56;;;;;;;6.63;4.13;;;;;;;16.59;100.00;101855.59;2613975;36;20035;-60
2022/07/07 02:47:24;;;;;;;6.87;5.30;;;;;;;16.59;100.00;101850.16;2614995;36;20082;-60
2022/07/07 02:49:55;;;;;;;9.35;5.05;;;;;;;16.55;100.00;101865.94;2614591;36;20066;-60
2022/07/07 02:52:23;;;;;;;8.50;4.93;;;;;;;16.52;100.00;101854.50;2613875;36;20051;-58
2022/07/07 02:54:51;;;;;;;8.88;4.68;;;;;;;16.63;100.00;101840.72;2615252;36;20555;-58
2022/07/07 02:57:19;;;;;;;5.83;4.60;;;;;;;16.68;100.00;101838.41;2614841;36;20039;-59
2022/07/07 02:59:47;;;;;;;5.47;4.47;;;;;;;16.58;100.00;101845.75;2615108;36;20041;-59
2022/07/07 03:02:16;;;;;;;5.38;4.63;;;;;;;16.60;100.00;101841.03;2614984;31;20038;-57
2022/07/07 03:04:44;;;;;;;9.88;4.93;;;;;;;16.53;100.00;101843.47;2615241;31;20548;-57
2022/07/07 03:07:15;;;;;;;7.90;4.82;;;;;;;16.53;100.00;101840.75;2614443;36;20031;-60
2022/07/07 03:09:44;;;;;;;7.07;4.57;;;;;;;16.52;100.00;101832.75;2615485;31;20556;-57
2022/07/07 03:12:12;;;;;;;6.47;4.70;;;;;;;16.51;100.00;101837.34;2614100;36;20061;-57
2022/07/07 03:14:40;;;;;;;10.40;5.18;;;;;;;16.51;100.00;101836.50;2615795;31;20742;-57
2022/07/07 03:17:08;;;;;;;9.03;4.97;;;;;;;16.46;100.00;101829.66;2613795;36;20063;-57
2022/07/07 03:19:39;;;;;;;8.67;4.50;;;;;;;16.49;100.00;101822.19;2611558;36;20034;-54
2022/07/07 03:22:07;;;;;;;9.18;5.13;;;;;;;16.55;100.00;101827.00;2613959;36;20669;-58
2022/07/07 03:24:38;;;;;;;12.35;6.15;;;;;;;16.53;100.00;101831.75;2614826;36;20037;-57
2022/07/07 03:27:07;;;;;;;11.10;5.13;;;;;;;16.59;100.00;101842.00;2614219;36;20590;-59
2022/07/07 03:29:36;;;;;;;9.43;4.47;;;;;;;16.60;100.00;101846.44;2614529;32;20041;-59
2022/07/07 03:32:05;;;;;;;9.05;3.58;;;;;;;16.56;100.00;101850.47;2611100;36;20034;-58
2022/07/07 03:34:33;;;;;;;9.48;3.30;;;;;;;16.62;100.00;101855.28;2602388;36;20118;-59
2022/07/07 03:37:01;;;;;;;6.70;3.17;;;;;;;16.71;100.00;101853.53;2610964;36;20046;-61
2022/07/07 03:39:29;;;;;;;7.22;2.83;;;;;;;16.65;100.00;101855.00;2614917;36;20038;-60
2022/07/07 03:42:00;;;;;;;7.70;2.47;;;;;;;16.59;100.00;101852.88;2614296;36;20034;-62
2022/07/07 03:44:29;;;;;;;4.38;1.83;;;;;;;16.50;100.00;101856.53;2614803;36;20594;-63
2022/07/07 03:46:57;;;;;;;2.70;1.35;;;;;;;16.52;100.00;101857.22;2614762;36;20451;-60
2022/07/07 03:49:26;;;;;;;3.63;1.37;;;;;;;16.47;100.00;101857.66;2614551;36;20547;-61
2022/07/07 03:51:54;;;;;;;2.77;1.43;;;;;;;16.48;100.00;101853.13;2613671;36;20588;-60
2022/07/07 03:54:22;;;;;;;2.83;1.23;;;;;;;16.33;100.00;101855.44;2613705;36;20166;-60
2022/07/07 03:56:52;;;;;;;2.67;1.20;;;;;;;16.40;100.00;101846.56;2613561;36;20034;-60
2022/07/07 03:59:22;;;;;;;;;;;;;;;16.40;100.00;101846.56;2614796;36;20165;-56
2022/07/07 04:01:51;;;;;;;5.18;1.40;;;;;;;16.29;100.00;101852.19;2614355;36;19996;-57
2022/07/07 04:04:19;;;;;;;2.83;1.25;;;;;;;16.29;100.00;101854.91;2613553;36;20034;-57
2022/07/07 04:06:47;;;;;;;2.27;1.10;;;;;;;16.32;100.00;101854.59;2614108;36;20069;-58
2022/07/07 04:09:15;;;;;;;3.45;1.30;;;;;;;16.35;100.00;101867.88;2615403;31;20712;-58
2022/07/07 04:11:44;;;;;;;2.93;1.30;;;;;;;16.42;100.00;101863.56;2613601;36;20061;-59
2022/07/07 04:14:12;;;;;;;2.42;1.35;;;;;;;16.34;100.00;101860.75;2614422;36;20043;-61
2022/07/07 04:16:43;;;;;;;4.73;1.33;;;;;;;16.39;100.00;101868.44;2614037;36;20121;-59
2022/07/07 04:19:11;;;;;;;4.28;1.90;;;;;;;16.45;100.00;101863.25;2614672;36;20031;-59
2022/07/07 04:21:39;;;;;;;4.47;1.50;;;;;;;16.49;100.00;101871.09;2614205;36;20689;-59
2022/07/07 04:24:08;;;;;;;2.00;1.23;;;;;;;16.52;100.00;101865.38;2614390;36;20543;-59
2022/07/07 04:26:37;;;;;;;3.42;1.08;;;;;;;16.42;100.00;101874.44;2614072;36;20068;-59
2022/07/07 04:29:05;;;;;;;5.10;1.27;;;;;;;16.46;100.00;101884.00;2615090;36;20030;-63
2022/07/07 04:31:33;;;;;;;4.70;1.20;;;;;;;16.52;100.00;101876.22;2613506;36;20050;-62
2022/07/07 04:34:05;;;;;;;2.80;1.10;;;;;;;16.61;100.00;101887.06;2614061;36;20587;-59
2022/07/07 04:36:34;;;;;;;4.53;1.20;;;;;;;16.54;100.00;101876.97;2613832;36;20037;-58
2022/07/07 04:39:02;;;;;;;2.87;1.17;;;;;;;16.40;100.00;101887.31;2614290;36;20615;-59
2022/07/07 04:41:30;;;;;;;3.70;1.10;;;;;;;16.25;100.00;101891.50;2614287;36;20042;-59
2022/07/07 04:43:58;;;;;;;5.20;1.52;;;;;;;16.19;100.00;101892.09;2614694;36;20055;-62
2022/07/07 04:46:27;;;;;;;2.77;0.80;;;;;;;16.19;100.00;101889.38;2613872;36;20034;-60
2022/07/07 04:48:55;;;;;;;3.90;1.10;;;;;;;16.17;100.00;101897.69;2613484;36;20069;-58
2022/07/07 04:51:26;;;;;;;4.90;1.30;;;;;;;16.23;100.00;101898.97;2613685;36;20073;-59
2022/07/07 04:53:54;;;;;;;3.55;0.98;;;;;;;16.32;100.00;101899.94;2614128;36;20066;-59
2022/07/07 04:56:22;;;;;;;2.40;0.90;;;;;;;16.39;100.00;101910.06;2614007;36;20552;-59
2022/07/07 04:58:51;;;;;;;6.40;1.20;;;;;;;16.38;100.00;101908.31;2614928;31;20758;-58
2022/07/07 05:01:19;;;;;;;4.33;0.77;;;;;;;16.33;100.00;101905.22;2614151;36;20034;-59
2022/07/07 05:03:47;;;;;;;2.87;1.03;;;;;;;16.45;100.00;101911.31;2613642;36;20591;-59
2022/07/07 05:06:16;;;;;;;2.90;1.00;;;;;;;16.49;100.00;101912.75;2613771;36;20202;-59
2022/07/07 05:08:47;;;;;;;5.30;1.02;;;;;;;16.35;100.00;101910.50;2613719;36;20320;-60
2022/07/07 05:11:15;;;;;;;5.93;1.13;;;;;;;16.34;100.00;101914.22;2614255;36;20038;-59
2022/07/07 05:13:43;;;;;;;3.50;1.17;;;;;;;16.29;100.00;101920.09;2614405;36;20073;-59
2022/07/07 05:16:12;;;;;;;6.73;1.03;;;;;;;16.31;100.00;101918.06;2614110;36;20030;-61
2022/07/07 05:18:40;;;;;;;4.33;1.30;;;;;;;16.35;100.00;101935.81;2613927;36;20030;-58
2022/07/07 05:21:11;;;;;;;6.30;1.40;;;;;;;16.32;100.00;101921.66;2614745;54;20042;-59
2022/07/07 05:23:39;;;;;;;4.20;1.15;;;;;;;16.19;100.00;101930.13;2617157;54;20023;-59
2022/07/07 05:26:10;;;;;;;2.93;1.07;;;;;;;16.09;100.00;101943.72;2614092;36;20085;-59
2022/07/07 05:28:41;;;;;;;6.65;1.35;;;;;;;16.07;100.00;101948.44;2616268;36;20022;-59
2022/07/07 05:31:10;;;;;;;2.20;1.00;;;;;;;16.13;100.00;101952.44;2614711;36;20034;-61
2022/07/07 05:33:38;;;;;;;3.80;0.90;;;;;;;16.14;100.00;101965.03;2613327;36;20035;-63
2022/07/07 05:36:07;;;;;;;2.23;0.93;;;;;;;16.17;100.00;101962.03;2610707;36;20054;-67
2022/07/07 05:38:36;;;;;;;2.33;0.77;;;;;;;16.21;100.00;101958.88;2613620;36;20610;-61
2022/07/07 05:41:04;;;;;;;;;;;;;;;16.13;100.00;101969.59;2613082;31;20034;-62
2022/07/07 05:43:35;;;;;;;1.73;0.73;;;;;;;15.90;100.00;101977.19;2613078;36;20475;-64
2022/07/07 05:46:04;;;;;;;2.00;0.80;;;;;;;16.05;100.00;101970.31;2610853;36;20481;-60
2022/07/07 05:48:32;;;;;;;2.17;0.80;;;;;;;16.12;100.00;101967.88;2613786;36;20039;-60
2022/07/07 05:51:00;;;;;;;1.48;0.90;;;;;;;16.00;100.00;101980.75;2613421;36;20064;-60
2022/07/07 05:53:28;;;;;;;3.53;0.73;;;;;;;16.10;100.00;101981.59;2612530;36;20030;-64
2022/07/07 05:55:58;;;;;;;3.45;0.75;;;;;;;16.35;100.00;101982.00;2613863;36;20093;-60
2022/07/07 05:58:27;;;;;;;2.78;1.00;;;;;;;16.28;100.00;101978.13;2611562;36;20178;-60
2022/07/07 06:00:58;;;;;;;5.20;1.00;;;;;;;16.32;100.00;101990.44;2614486;31;20063;-60
2022/07/07 06:03:26;;;;;;;1.55;0.65;;;;;;;16.44;100.00;101992.00;2612850;36;20114;-60
2022/07/07 06:05:54;;;;;;;2.93;0.77;;;;;;;16.60;100.00;101977.75;2613570;36;20039;-59
2022/07/07 06:08:22;;;;;;;4.05;1.27;;;;;;;16.64;100.00;102000.94;2612479;36;20118;-59
2022/07/07 06:10:51;;;;;;;3.93;0.83;;;;;;;16.65;100.00;101996.34;2613296;36;20038;-62
2022/07/07 06:13:20;;;;;;;1.85;0.90;;;;;;;16.64;100.00;101995.50;2613459;36;20572;-60
2022/07/07 06:15:48;;;;;;;1.67;0.88;;;;;;;16.66;100.00;101989.91;2614156;36;20042;-60
2022/07/07 06:18:19;;;;;;;2.27;1.23;;;;;;;16.87;100.00;101999.69;2613866;36;20063;-60
2022/07/07 06:20:47;;;;;;;4.88;1.92;;;;;;;16.96;100.00;101996.09;2614468;36;20073;-62
2022/07/07 06:23:15;;;;;;;5.77;0.90;;;;;;;16.89;100.00;102014.91;2615011;36;20452;-60
2022/07/07 06:25:45;;;;;;;4.85;1.20;;;;;;;16.69;100.00;102008.63;2614802;31;20054;-61
2022/07/07 06:28:14;;;;;;;3.78;0.82;;;;;;;16.71;100.00;102017.53;2614409;36;20034;-59
2022/07/07 06:30:42;;;;;;;4.63;0.70;;;;;;;16.82;100.00;102020.03;2614902;36;20030;-65
2022/07/07 06:33:10;;;;;;;1.70;0.47;;;;;;;16.87;100.00;102013.28;2615095;36;20303;-60
2022/07/07 06:35:41;;;;;;;4.13;1.35;;;;;;;16.89;100.00;102019.50;2614645;31;20037;-60
2022/07/07 06:38:10;;;;;;;0.88;0.60;;;;;;;16.75;100.00;102018.91;2614564;31;20071;-59
2022/07/07 06:40:38;;;;;;;1.70;0.70;;;;;;;16.96;100.00;102026.91;2614686;36;20057;-58
2022/07/07 06:43:06;;;;;;;4.25;1.10;;;;;;;17.15;100.00;102023.22;2612956;36;20307;-57
2022/07/07 06:45:34;;;;;;;5.27;1.03;;;;;;;17.43;100.00;102023.22;2614449;31;20091;-60
2022/07/07 06:48:03;;;;;;;3.97;0.83;;;;;;;17.10;100.00;102030.97;2613299;36;20030;-62
2022/07/07 06:50:31;;;;;;;1.23;0.60;;;;;;;17.08;100.00;102024.84;2614789;36;20035;-61
2022/07/07 06:53:02;;;;;;;4.30;0.87;;;;;;;17.16;100.00;102033.09;2614627;36;20344;-59
2022/07/07 06:55:30;;;;;;;2.28;0.73;;;;;;;17.27;100.00;102040.22;2612012;36;20143;-58
2022/07/07 06:57:58;;;;;;;3.00;0.93;;;;;;;17.13;100.00;102046.16;2607498;36;20038;-60
2022/07/07 07:00:27;;;;;;;1.77;0.83;;;;;;;17.11;100.00;102045.44;2605508;36;20295;-67
2022/07/07 07:02:55;;;;;;;3.45;0.90;;;;;;;17.29;100.00;102045.50;2614685;36;20452;-60
2022/07/07 07:05:23;;;;;;;1.63;0.60;;;;;;;17.69;100.00;102050.53;2612401;36;20034;-62
2022/07/07 07:07:52;;;;;;;1.67;0.70;;;;;;;17.81;100.00;102043.00;2612832;36;20117;-58
2022/07/07 07:10:23;;;;;;;2.70;0.87;;;;;;;17.55;100.00;102052.94;2612898;36;20391;-60
2022/07/07 07:12:51;;;;;;;3.55;0.68;;;;;;;17.62;100.00;102067.66;2614291;31;20065;-59
2022/07/07 07:15:19;;;;;;;1.37;0.50;;;;;;;17.69;100.00;102066.03;2614820;36;20082;-64
2022/07/07 07:17:48;;;;;;;1.00;0.40;;;;;;;17.67;100.00;102062.59;2614599;36;20307;-59
2022/07/07 07:20:16;;;;;;;2.60;0.60;;;;;;;17.60;100.00;102073.25;2615251;36;20522;-62
2022/07/07 07:22:44;;;;;;;2.40;0.60;;;;;;;17.48;100.00;102078.03;2613754;36;20035;-61
2022/07/07 07:25:15;;;;;;;1.20;0.70;;;;;;;17.86;100.00;102072.50;2613537;36;20073;-59
2022/07/07 07:27:46;;;;;;;3.13;0.75;;;;;;;18.00;100.00;102069.25;2613980;36;20031;-59
2022/07/07 07:30:16;;;;;;;1.77;0.70;;;;;;;18.14;100.00;102076.03;2614282;36;20034;-60
2022/07/07 07:32:44;;;;;;;2.45;1.10;;;;;;;18.38;100.00;102060.91;2614031;36;20034;-60
2022/07/07 07:35:13;;;;;;;3.03;0.63;;;;;;;18.37;100.00;102075.53;2614419;36;20041;-60
2022/07/07 07:37:41;;;;;;;;;;;;;;;18.38;100.00;102080.00;2613348;36;20039;-62
2022/07/07 07:40:12;;;;;;;1.27;0.52;;;;;;;18.34;100.00;102087.66;2614092;36;19966;-58
2022/07/07 07:42:41;;;;;;;1.45;0.70;;;;;;;18.20;100.00;102085.47;2613524;36;20061;-60
2022/07/07 07:45:13;;;;;;;1.70;0.80;;;;;;;18.51;100.00;102077.72;2614149;36;20573;-62
2022/07/07 07:47:43;;;;;;;4.75;0.80;;;;;;;18.78;100.00;102077.72;2613087;36;20034;-59
2022/07/07 07:50:14;;;;;;;3.65;0.90;;;;;;;18.74;100.00;102078.06;2614430;36;20022;-60
2022/07/07 07:52:44;;;;;;;1.25;0.50;;;;;;;18.65;100.00;102073.53;2614265;36;20038;-59
2022/07/07 07:55:21;;;;;;;1.80;0.80;;;;;;;18.65;100.00;102084.44;2614885;54;20758;-58
2022/07/07 07:57:50;;;;;;;2.35;0.80;;;;;;;18.68;100.00;102084.16;2614586;36;20042;-59
2022/07/07 08:00:23;;;;;;;2.83;0.70;;;;;;;18.94;100.00;102083.31;2607210;36;20547;-58
2022/07/07 08:02:52;;;;;;;1.85;0.70;;;;;;;19.38;100.00;102102.28;2614059;36;20528;-58
2022/07/07 08:05:21;;;;;;;1.38;0.50;;;;;;;19.26;100.00;102087.25;2613591;31;20038;-57
2022/07/07 08:07:50;;;;;;;0.82;0.52;;;;;;;19.16;100.00;102081.91;2606934;36;20061;-59
2022/07/07 08:10:19;;;;;;;0.73;0.40;;;;;;;19.24;100.00;102072.88;2612864;36;20030;-58
2022/07/07 08:12:47;;;;;;;;;;;;;;;18.80;100.00;102079.28;2614908;36;20334;-59
2022/07/07 08:15:16;;;;;;;0.38;0.30;;;;;;;18.03;100.00;102100.78;2614231;36;20074;-59
2022/07/07 08:17:48;;;;;;;1.70;0.47;;;;;;;17.46;100.00;102099.13;2614069;36;20057;-59
2022/07/07 08:20:17;;;;;;;2.03;0.95;;;;;;;17.68;100.00;102118.75;2614615;36;20034;-59
2022/07/07 08:22:45;;;;;;;1.65;1.30;;;;;;;18.12;100.00;102112.63;2614819;31;20537;-59
2022/07/07 08:25:16;;;;;;;2.90;0.60;;;;;;;18.27;100.00;102126.56;2613022;31;20546;-58
2022/07/07 08:27:44;;;;;;;0.75;0.50;;;;;;;18.40;100.00;102107.94;2611148;36;20695;-61
2022/07/07 08:30:13;;;;;;;2.30;0.30;;;;;;;18.50;100.00;102111.44;2613115;36;20619;-61
2022/07/07 08:32:44;;;;;;;1.50;0.40;;;;;;;18.35;100.00;102118.47;2614754;36;20476;-61
2022/07/07 08:35:16;;;;;;;1.48;0.30;;;;;;;18.57;100.00;102114.41;2613159;36;20038;-61
2022/07/07 08:37:45;;;;;;;2.05;0.30;;;;;;;18.77;100.00;102114.19;2611806;36;20130;-65
2022/07/07 08:40:13;;;;;;;;;;;;;;;18.66;100.00;102118.03;2613455;36;20038;-59
2022/07/07 08:42:42;;;;;;;0.38;0.30;;;;;;;18.53;100.00;102119.28;2613379;36;19950;-59
2022/07/07 08:45:11;;;;;;;;;;;;;;;18.16;100.00;102133.09;2613882;31;20559;-59
2022/07/07 08:47:39;;;;;;;0.93;0.40;;;;;;;18.49;100.00;102126.09;2613253;36;20438;-59
2022/07/07 08:50:09;;;;;;;1.60;0.67;;;;;;;18.45;100.00;102143.78;2615195;36;20081;-59
2022/07/07 08:52:41;;;;;;;0.93;0.50;;;;;;;18.10;100.00;102140.03;2614359;36;20664;-62
2022/07/07 08:55:11;;;;;;;0.50;0.50;;;;;;;17.75;100.00;102152.53;2614742;36;20081;-58
2022/07/07 08:57:39;;;;;;;0.85;0.40;;;;;;;17.66;100.00;102145.28;2612953;36;20076;-62
2022/07/07 09:00:09;;;;;;;1.48;0.40;;;;;;;17.59;100.00;102152.34;2613724;31;20087;-58
2022/07/07 09:02:37;;;;;;;2.20;0.52;;;;;;;18.38;100.00;102159.03;2614309;36;20409;-59
2022/07/07 09:05:06;;;;;;;0.93;0.40;;;;;;;19.14;100.00;102149.44;2613238;36;20596;-60
2022/07/07 09:07:51;;;;;;;1.92;0.60;;;;;;;18.79;100.00;102144.91;2606457;36;20430;-59
2022/07/07 09:10:31;;;;;;;2.30;0.50;;;;;;;18.63;100.00;102146.47;2613220;31;20628;-59
2022/07/07 09:13:00;;;;;;;1.17;0.50;;;;;;;18.77;100.00;102157.84;2613631;36;20030;-59
2022/07/07 09:15:29;;;;;;;0.43;0.40;;;;;;;18.93;100.00;102146.22;2605821;31;20065;-60
2022/07/07 09:17:57;;;;;;;2.38;0.75;;;;;;;18.25;100.00;102164.03;2612244;36;20069;-57
2022/07/07 09:20:25;;;;;;;2.28;0.73;;;;;;;18.24;100.00;102174.09;2612357;36;20035;-58
2022/07/07 09:22:58;;;;;;;3.45;0.90;;;;;;;18.15;100.00;102183.16;2613949;31;20462;-59
2022/07/07 09:25:28;;;;;;;3.25;0.70;;;;;;;18.16;100.00;102196.63;2613191;36;20599;-58
2022/07/07 09:27:59;;;;;;;2.25;0.68;;;;;;;18.36;100.00;102191.91;2613731;31;20067;-63
2022/07/07 09:30:41;;;;;;;2.97;0.85;;;;;;;18.54;100.00;102193.78;2614468;36;20068;-58
2022/07/07 09:33:12;;;;;;;5.38;0.85;;;;;;;18.62;100.00;102195.72;2613660;36;20526;-61
2022/07/07 09:38:30;;;;;;;2.05;0.90;;;;;;;18.53;100.00;102205.69;2613518;36;20039;-58
2022/07/07 09:41:03;;;;;;;1.48;0.70;;;;;;;18.55;100.00;102207.25;2613238;36;20416;-59
2022/07/07 09:43:33;;;;;;;1.00;0.50;;;;;;;18.50;100.00;102217.75;2613316;36;20432;-58
2022/07/07 09:46:14;;;;;;;2.80;0.60;;;;;;;18.25;100.00;102219.38;2612253;36;20034;-59
2022/07/07 09:48:45;;;;;;;1.42;0.70;;;;;;;18.11;100.00;102228.06;2612001;31;20031;-65
2022/07/07 09:51:20;;;;;;;3.53;1.00;;;;;;;18.49;100.00;102226.97;2614230;31;20579;-60
2022/07/07 09:54:06;;;;;;;2.72;0.95;;;;;;;18.66;100.00;102243.50;2613385;36;21729;-58
2022/07/07 09:56:37;;;;;;;1.00;0.70;;;;;;;19.00;100.00;102246.38;2614443;36;20062;-61
2022/07/07 09:59:08;;;;;;;1.50;0.70;;;;;;;19.01;100.00;102242.63;2614324;36;20410;-58
2022/07/07 10:01:39;;;;;;;3.50;0.70;;;;;;;19.16;100.00;102242.91;2615335;36;20082;-58
2022/07/07 10:04:09;;;;;;;1.88;0.90;;;;;;;18.63;100.00;102243.81;2614163;36;20584;-62
2022/07/07 10:06:39;;;;;;;1.73;0.93;;;;;;;19.18;100.00;102240.03;2612239;31;20086;-60
2022/07/07 10:09:12;;;;;;;3.30;1.30;;;;;;;19.83;100.00;102236.88;2614092;36;20085;-59
2022/07/07 10:11:43;;;;;;;2.05;0.90;;;;;;;20.11;100.00;102232.03;2614200;36;20030;-62
2022/07/07 10:14:17;;;;;;;1.83;0.90;;;;;;;20.24;100.00;102234.31;2613619;36;20126;-62
2022/07/07 10:16:47;;;;;;;2.92;1.38;;;;;;;19.90;100.00;102243.38;2607946;36;20061;-60
2022/07/07 10:19:17;;;;;;;2.28;1.00;;;;;;;19.67;100.00;102251.28;2609394;36;20145;-65
2022/07/07 10:21:53;;;;;;;3.35;1.10;;;;;;;19.14;100.00;102258.59;2615505;36;20082;-60
2022/07/07 10:24:25;;;;;;;2.08;0.88;;;;;;;18.60;100.00;102260.47;2615220;36;20439;-61
2022/07/07 10:26:55;;;;;;;2.10;0.93;;;;;;;18.56;100.00;102259.91;2614202;31;20075;-60
2022/07/07 10:29:41;;;;;;;3.10;0.93;;;;;;;18.88;100.00;102269.47;2613677;36;20595;-62
2022/07/07 10:32:11;;;;;;;1.52;0.70;;;;;;;19.11;100.00;102280.75;2611872;36;20065;-60
2022/07/07 10:34:41;;;;;;;2.10;0.88;;;;;;;19.77;100.00;102278.47;2614888;36;20455;-59
2022/07/07 10:37:12;;;;;;;1.60;1.00;;;;;;;19.53;100.00;102285.50;2614708;36;20030;-59
2022/07/07 10:39:47;;;;;;;0.80;0.80;;;;;;;18.64;100.00;102283.66;2614626;36;20038;-60
2022/07/07 10:42:32;;;;;;;1.63;1.00;;;;;;;17.97;100.00;102292.94;2613228;31;20058;-62
2022/07/07 10:45:00;;;;;;;1.00;0.70;;;;;;;18.09;100.00;102312.69;2614027;36;20038;-61
2022/07/07 10:47:34;;;;;;;1.42;0.80;;;;;;;18.18;100.00;102306.34;2614977;36;20051;-63
2022/07/07 10:50:03;;;;;;;3.53;1.20;;;;;;;18.18;100.00;102309.06;2614743;36;20402;-61
2022/07/07 10:52:43;;;;;;;1.27;0.70;;;;;;;18.14;100.00;102321.28;2614564;36;20364;-59
2022/07/07 10:55:13;;;;;;;1.27;0.80;;;;;;;18.37;100.00;102323.59;2613829;36;20555;-60
2022/07/07 10:57:43;;;;;;;1.77;1.00;;;;;;;18.20;100.00;102330.72;2613924;36;20061;-61
2022/07/07 11:00:15;;;;;;;2.63;1.10;;;;;;;18.01;100.00;102343.41;2613255;36;20067;-62
2022/07/07 11:02:47;;;;;;;2.83;0.88;;;;;;;17.80;100.00;102354.50;2613481;36;20073;-63
2022/07/07 11:05:45;;;;;;;1.58;0.82;;;;;;;17.58;100.00;102365.69;2613438;36;20035;-62
2022/07/07 11:08:18;;;;;;;3.92;0.85;;;;;;;18.10;100.00;102379.81;2613651;36;20050;-62
2022/07/07 11:10:55;;;;;;;1.15;0.60;;;;;;;18.24;100.00;102369.41;2613793;36;20038;-61
2022/07/07 11:13:31;;;;;;;1.55;0.80;;;;;;;18.16;100.00;102362.00;2614516;36;20042;-61
2022/07/07 11:16:17;;;;;;;1.73;0.70;;;;;;;18.20;100.00;102367.00;2613647;36;20065;-57
2022/07/07 11:18:49;;;;;;;2.25;0.90;;;;;;;18.35;100.00;102381.00;2607128;36;20873;-62
2022/07/07 11:21:17;;;;;;;1.63;0.90;;;;;;;18.24;100.00;102385.78;2611048;36;20065;-60
2022/07/07 11:23:52;;;;;;;2.33;0.82;;;;;;;18.57;100.00;102376.16;2610985;36;20030;-59
2022/07/07 11:26:25;;;;;;;3.72;1.10;;;;;;;17.50;100.00;102399.97;2612613;36;20106;-59
2022/07/07 11:28:54;;;;;;;3.60;1.30;;;;;;;17.34;100.00;102424.16;2604823;36;22084;-60
2022/07/07 11:31:23;;;;;;;4.07;1.38;;;;;;;16.84;100.00;102435.91;2611438;36;20034;-64